sensor_id;sensor_type;location;lat;lon;timestamp;temperature;humidity
32811;DHT22;65470;47.324;8.548;2023-02-25T00:02:08;10.90;99.90
32811;DHT22;65470;47.324;8.548;2023-02-25T00:04:34;10.80;99.90
32811;DHT22;65470;47.324;8.548;2023-02-25T00:07:00;10.80;99.90
32811;DHT22;65470;47.324;8.548;2023-02-25T00:09:27;10.80;99.90
32811;DHT22;65470;47.324;8.548;2023-02-25T00:11:52;10.80;99.90
32811;DHT22;65470;47.324;8.548;2023-02-25T00:14:18;10.80;99.90
32811;DHT22;65470;47.324;8.548;2023-02-25T00:16:44;10.80;99.90
32811;DHT22;65470;47.324;8.548;2023-02-25T00:19:10;10.80;99.90
32811;DHT22;65470;47.324;8.548;2023-02-25T00:21:35;10.80;99.90
32811;DHT22;65470;47.324;8.548;2023-02-25T00:24:02;10.80;99.90
32811;DHT22;65470;47.324;8.548;2023-02-25T00:26:28;10.70;99.90
32811;DHT22;65470;47.324;8.548;2023-02-25T00:28:54;10.80;99.90
32811;DHT22;65470;47.324;8.548;2023-02-25T00:31:22;10.80;99.90
32811;DHT22;65470;47.324;8.548;2023-02-25T00:33:48;10.80;99.90
32811;DHT22;65470;47.324;8.548;2023-02-25T00:36:17;10.80;99.90
32811;DHT22;65470;47.324;8.548;2023-02-25T00:38:45;10.80;99.90
32811;DHT22;65470;47.324;8.548;2023-02-25T00:41:13;10.80;99.90
32811;DHT22;65470;47.324;8.548;2023-02-25T00:43:42;10.80;99.90
32811;DHT22;65470;47.324;8.548;2023-02-25T00:46:11;10.80;99.90
32811;DHT22;65470;47.324;8.548;2023-02-25T00:48:37;10.80;99.90
32811;DHT22;65470;47.324;8.548;2023-02-25T00:51:11;10.80;99.90
32811;DHT22;65470;47.324;8.548;2023-02-25T00:53:37;10.70;99.90
32811;DHT22;65470;47.324;8.548;2023-02-25T00:56:05;10.80;99.90
32811;DHT22;65470;47.324;8.548;2023-02-25T00:58:33;10.80;99.90
32811;DHT22;65470;47.324;8.548;2023-02-25T01:00:59;10.90;99.90
32811;DHT22;65470;47.324;8.548;2023-02-25T01:03:26;10.90;99.90
32811;DHT22;65470;47.324;8.548;2023-02-25T01:05:52;10.80;99.90
32811;DHT22;65470;47.324;8.548;2023-02-25T01:08:18;10.70;99.90
32811;DHT22;65470;47.324;8.548;2023-02-25T01:10:46;10.70;99.90
32811;DHT22;65470;47.324;8.548;2023-02-25T01:13:13;10.80;99.90
32811;DHT22;65470;47.324;8.548;2023-02-25T01:15:39;10.80;99.90
32811;DHT22;65470;47.324;8.548;2023-02-25T01:18:05;10.70;99.90
32811;DHT22;65470;47.324;8.548;2023-02-25T01:20:31;10.70;99.90
32811;DHT22;65470;47.324;8.548;2023-02-25T01:22:57;10.70;99.90
32811;DHT22;65470;47.324;8.548;2023-02-25T01:25:23;10.70;99.90
32811;DHT22;65470;47.324;8.548;2023-02-25T01:27:56;10.60;99.90
32811;DHT22;65470;47.324;8.548;2023-02-25T01:30:22;10.50;99.90
32811;DHT22;65470;47.324;8.548;2023-02-25T01:32:47;10.30;99.90
32811;DHT22;65470;47.324;8.548;2023-02-25T01:35:13;10.20;99.90
32811;DHT22;65470;47.324;8.548;2023-02-25T01:37:39;10.20;99.90
32811;DHT22;65470;47.324;8.548;2023-02-25T01:40:05;10.20;99.90
32811;DHT22;65470;47.324;8.548;2023-02-25T01:42:31;10.10;99.90
32811;DHT22;65470;47.324;8.548;2023-02-25T01:45:27;10.10;99.90
32811;DHT22;65470;47.324;8.548;2023-02-25T01:48:04;10.20;99.90
32811;DHT22;65470;47.324;8.548;2023-02-25T01:50:36;10.10;99.90
32811;DHT22;65470;47.324;8.548;2023-02-25T01:53:04;10.20;99.90
32811;DHT22;65470;47.324;8.548;2023-02-25T01:55:31;10.00;99.90
32811;DHT22;65470;47.324;8.548;2023-02-25T01:57:59;10.00;99.90
32811;DHT22;65470;47.324;8.548;2023-02-25T02:00:27;10.00;99.90
32811;DHT22;65470;47.324;8.548;2023-02-25T02:02:55;10.00;99.90
32811;DHT22;65470;47.324;8.548;2023-02-25T02:05:24;9.90;99.90
32811;DHT22;65470;47.324;8.548;2023-02-25T02:07:52;9.90;99.90
32811;DHT22;65470;47.324;8.548;2023-02-25T02:10:18;9.80;99.90
32811;DHT22;65470;47.324;8.548;2023-02-25T02:12:45;9.80;99.90
32811;DHT22;65470;47.324;8.548;2023-02-25T02:15:13;9.70;99.90
32811;DHT22;65470;47.324;8.548;2023-02-25T02:17:58;9.70;99.90
32811;DHT22;65470;47.324;8.548;2023-02-25T02:20:29;9.60;99.90
32811;DHT22;65470;47.324;8.548;2023-02-25T02:31:32;9.00;99.90
32811;DHT22;65470;47.324;8.548;2023-02-25T02:39:41;9.10;99.90
32811;DHT22;65470;47.324;8.548;2023-02-25T02:42:33;9.00;99.90
32811;DHT22;65470;47.324;8.548;2023-02-25T02:45:22;8.90;99.90
32811;DHT22;65470;47.324;8.548;2023-02-25T02:47:57;8.90;99.90
32811;DHT22;65470;47.324;8.548;2023-02-25T02:50:28;9.00;99.90
32811;DHT22;65470;47.324;8.548;2023-02-25T02:53:01;9.00;99.90
32811;DHT22;65470;47.324;8.548;2023-02-25T02:55:43;9.00;99.90
32811;DHT22;65470;47.324;8.548;2023-02-25T02:58:15;9.00;99.90
32811;DHT22;65470;47.324;8.548;2023-02-25T03:04:13;8.90;99.90
32811;DHT22;65470;47.324;8.548;2023-02-25T03:06:44;8.80;99.90
32811;DHT22;65470;47.324;8.548;2023-02-25T03:09:18;8.60;99.90
32811;DHT22;65470;47.324;8.548;2023-02-25T03:11:45;8.50;99.90
32811;DHT22;65470;47.324;8.548;2023-02-25T03:14:12;8.40;99.90
32811;DHT22;65470;47.324;8.548;2023-02-25T03:16:56;8.40;99.90
32811;DHT22;65470;47.324;8.548;2023-02-25T03:19:36;8.30;99.90
32811;DHT22;65470;47.324;8.548;2023-02-25T03:22:24;8.30;99.90
32811;DHT22;65470;47.324;8.548;2023-02-25T03:24:57;8.20;99.90
32811;DHT22;65470;47.324;8.548;2023-02-25T03:27:32;8.20;99.90
32811;DHT22;65470;47.324;8.548;2023-02-25T03:30:34;8.30;99.90
32811;DHT22;65470;47.324;8.548;2023-02-25T03:33:10;8.20;99.90
32811;DHT22;65470;47.324;8.548;2023-02-25T03:35:39;8.20;99.90
32811;DHT22;65470;47.324;8.548;2023-02-25T03:38:09;8.20;99.90
32811;DHT22;65470;47.324;8.548;2023-02-25T03:40:37;8.10;99.90
32811;DHT22;65470;47.324;8.548;2023-02-25T03:43:13;8.10;99.90
32811;DHT22;65470;47.324;8.548;2023-02-25T03:45:40;8.00;99.90
32811;DHT22;65470;47.324;8.548;2023-02-25T03:48:08;8.10;99.90
32811;DHT22;65470;47.324;8.548;2023-02-25T03:50:41;8.00;99.90
32811;DHT22;65470;47.324;8.548;2023-02-25T03:53:09;8.00;99.90
32811;DHT22;65470;47.324;8.548;2023-02-25T03:55:35;8.00;99.90
32811;DHT22;65470;47.324;8.548;2023-02-25T03:58:01;8.00;99.90
32811;DHT22;65470;47.324;8.548;2023-02-25T04:00:31;7.90;99.90
32811;DHT22;65470;47.324;8.548;2023-02-25T04:02:58;8.00;99.90
32811;DHT22;65470;47.324;8.548;2023-02-25T04:05:24;8.00;99.90
32811;DHT22;65470;47.324;8.548;2023-02-25T04:07:54;8.00;99.90
32811;DHT22;65470;47.324;8.548;2023-02-25T04:10:20;8.00;99.90
32811;DHT22;65470;47.324;8.548;2023-02-25T04:12:46;8.00;99.90
32811;DHT22;65470;47.324;8.548;2023-02-25T04:15:12;8.00;99.90
32811;DHT22;65470;47.324;8.548;2023-02-25T04:17:40;8.00;99.90
32811;DHT22;65470;47.324;8.548;2023-02-25T04:20:06;7.90;99.90
32811;DHT22;65470;47.324;8.548;2023-02-25T04:22:32;7.90;99.90
32811;DHT22;65470;47.324;8.548;2023-02-25T04:24:58;7.90;99.90
32811;DHT22;65470;47.324;8.548;2023-02-25T04:27:23;7.90;99.90
32811;DHT22;65470;47.324;8.548;2023-02-25T04:29:50;7.90;99.90
32811;DHT22;65470;47.324;8.548;2023-02-25T04:32:16;7.90;99.90
32811;DHT22;65470;47.324;8.548;2023-02-25T04:34:42;7.90;99.90
32811;DHT22;65470;47.324;8.548;2023-02-25T04:37:07;7.90;99.90
32811;DHT22;65470;47.324;8.548;2023-02-25T04:39:34;8.00;99.90
32811;DHT22;65470;47.324;8.548;2023-02-25T04:42:01;7.90;99.90
32811;DHT22;65470;47.324;8.548;2023-02-25T04:44:27;8.00;99.90
32811;DHT22;65470;47.324;8.548;2023-02-25T04:46:53;7.90;99.90
32811;DHT22;65470;47.324;8.548;2023-02-25T04:49:21;7.90;99.90
32811;DHT22;65470;47.324;8.548;2023-02-25T04:51:47;7.80;99.90
32811;DHT22;65470;47.324;8.548;2023-02-25T04:54:14;7.80;99.90
32811;DHT22;65470;47.324;8.548;2023-02-25T04:56:43;7.90;99.90
32811;DHT22;65470;47.324;8.548;2023-02-25T04:59:09;7.90;99.90
32811;DHT22;65470;47.324;8.548;2023-02-25T05:01:36;8.00;99.90
32811;DHT22;65470;47.324;8.548;2023-02-25T05:04:03;8.00;99.90
32811;DHT22;65470;47.324;8.548;2023-02-25T05:06:29;8.00;99.90
32811;DHT22;65470;47.324;8.548;2023-02-25T05:08:55;7.90;99.90
32811;DHT22;65470;47.324;8.548;2023-02-25T05:11:23;7.90;99.90
32811;DHT22;65470;47.324;8.548;2023-02-25T05:13:49;7.90;99.90
32811;DHT22;65470;47.324;8.548;2023-02-25T05:16:16;7.90;99.90
32811;DHT22;65470;47.324;8.548;2023-02-25T05:18:44;7.80;99.90
32811;DHT22;65470;47.324;8.548;2023-02-25T05:21:15;7.80;99.90
32811;DHT22;65470;47.324;8.548;2023-02-25T05:23:42;7.80;99.90
32811;DHT22;65470;47.324;8.548;2023-02-25T05:26:08;7.80;99.90
32811;DHT22;65470;47.324;8.548;2023-02-25T05:28:34;7.80;99.90
32811;DHT22;65470;47.324;8.548;2023-02-25T05:31:10;7.60;99.90
32811;DHT22;65470;47.324;8.548;2023-02-25T05:33:38;7.60;99.90
32811;DHT22;65470;47.324;8.548;2023-02-25T05:36:05;7.60;99.90
32811;DHT22;65470;47.324;8.548;2023-02-25T05:38:31;7.60;99.90
32811;DHT22;65470;47.324;8.548;2023-02-25T05:40:59;7.60;99.90
32811;DHT22;65470;47.324;8.548;2023-02-25T05:43:24;7.60;99.90
32811;DHT22;65470;47.324;8.548;2023-02-25T05:45:54;7.40;99.90
32811;DHT22;65470;47.324;8.548;2023-02-25T05:48:20;7.40;99.90
32811;DHT22;65470;47.324;8.548;2023-02-25T05:50:47;7.40;99.90
32811;DHT22;65470;47.324;8.548;2023-02-25T05:53:15;7.40;99.90
32811;DHT22;65470;47.324;8.548;2023-02-25T05:55:42;7.20;99.90
32811;DHT22;65470;47.324;8.548;2023-02-25T05:58:08;7.20;99.90
32811;DHT22;65470;47.324;8.548;2023-02-25T06:00:34;7.20;99.90
32811;DHT22;65470;47.324;8.548;2023-02-25T06:03:00;7.20;99.90
32811;DHT22;65470;47.324;8.548;2023-02-25T06:05:25;7.30;99.90
32811;DHT22;65470;47.324;8.548;2023-02-25T06:07:51;7.20;99.90
32811;DHT22;65470;47.324;8.548;2023-02-25T06:10:16;7.20;99.90
32811;DHT22;65470;47.324;8.548;2023-02-25T06:12:42;7.20;99.90
32811;DHT22;65470;47.324;8.548;2023-02-25T06:15:08;7.20;99.90
32811;DHT22;65470;47.324;8.548;2023-02-25T06:17:34;7.20;99.90
32811;DHT22;65470;47.324;8.548;2023-02-25T06:19:59;7.30;99.90
32811;DHT22;65470;47.324;8.548;2023-02-25T06:22:25;7.40;99.90
32811;DHT22;65470;47.324;8.548;2023-02-25T06:24:51;7.40;99.90
32811;DHT22;65470;47.324;8.548;2023-02-25T06:27:16;7.40;99.90
32811;DHT22;65470;47.324;8.548;2023-02-25T06:29:42;7.50;99.90
32811;DHT22;65470;47.324;8.548;2023-02-25T06:32:11;7.50;99.90
32811;DHT22;65470;47.324;8.548;2023-02-25T06:34:37;7.60;99.90
32811;DHT22;65470;47.324;8.548;2023-02-25T06:37:03;7.60;99.90
32811;DHT22;65470;47.324;8.548;2023-02-25T06:39:29;7.60;99.90
32811;DHT22;65470;47.324;8.548;2023-02-25T06:41:55;7.60;99.90
32811;DHT22;65470;47.324;8.548;2023-02-25T06:44:20;7.60;99.90
32811;DHT22;65470;47.324;8.548;2023-02-25T06:46:52;7.60;99.90
32811;DHT22;65470;47.324;8.548;2023-02-25T06:49:20;7.50;99.90
32811;DHT22;65470;47.324;8.548;2023-02-25T06:51:46;7.40;99.90
32811;DHT22;65470;47.324;8.548;2023-02-25T06:54:15;7.30;99.90
32811;DHT22;65470;47.324;8.548;2023-02-25T06:56:40;7.30;99.90
32811;DHT22;65470;47.324;8.548;2023-02-25T06:59:06;7.30;99.90
32811;DHT22;65470;47.324;8.548;2023-02-25T07:01:32;7.20;99.90
32811;DHT22;65470;47.324;8.548;2023-02-25T07:03:58;7.20;99.90
32811;DHT22;65470;47.324;8.548;2023-02-25T07:06:24;7.20;99.90
32811;DHT22;65470;47.324;8.548;2023-02-25T07:08:49;7.30;99.90
32811;DHT22;65470;47.324;8.548;2023-02-25T07:13:46;7.30;99.90
32811;DHT22;65470;47.324;8.548;2023-02-25T07:16:13;7.30;99.90
32811;DHT22;65470;47.324;8.548;2023-02-25T07:18:40;7.30;99.90
32811;DHT22;65470;47.324;8.548;2023-02-25T07:21:06;7.30;99.90
32811;DHT22;65470;47.324;8.548;2023-02-25T07:23:32;7.30;99.90
32811;DHT22;65470;47.324;8.548;2023-02-25T07:26:02;7.20;99.90
32811;DHT22;65470;47.324;8.548;2023-02-25T07:28:28;7.10;99.90
32811;DHT22;65470;47.324;8.548;2023-02-25T07:30:54;6.90;99.90
32811;DHT22;65470;47.324;8.548;2023-02-25T07:33:19;6.80;99.90
32811;DHT22;65470;47.324;8.548;2023-02-25T07:35:45;6.80;99.90
32811;DHT22;65470;47.324;8.548;2023-02-25T07:38:10;6.80;99.90
32811;DHT22;65470;47.324;8.548;2023-02-25T07:40:38;6.70;99.90
32811;DHT22;65470;47.324;8.548;2023-02-25T07:43:05;6.70;99.90
32811;DHT22;65470;47.324;8.548;2023-02-25T07:45:31;6.70;99.90
32811;DHT22;65470;47.324;8.548;2023-02-25T07:47:57;6.90;99.90
32811;DHT22;65470;47.324;8.548;2023-02-25T07:50:22;6.90;99.90
32811;DHT22;65470;47.324;8.548;2023-02-25T07:52:48;6.90;99.90
32811;DHT22;65470;47.324;8.548;2023-02-25T07:55:14;7.00;99.90
32811;DHT22;65470;47.324;8.548;2023-02-25T07:57:40;7.00;99.90
32811;DHT22;65470;47.324;8.548;2023-02-25T08:00:06;7.00;99.90
32811;DHT22;65470;47.324;8.548;2023-02-25T08:02:35;7.10;99.90
32811;DHT22;65470;47.324;8.548;2023-02-25T08:05:01;7.20;99.90
32811;DHT22;65470;47.324;8.548;2023-02-25T08:07:28;7.20;99.90
32811;DHT22;65470;47.324;8.548;2023-02-25T08:09:54;7.10;99.90
32811;DHT22;65470;47.324;8.548;2023-02-25T08:12:20;7.20;99.90
32811;DHT22;65470;47.324;8.548;2023-02-25T08:14:45;7.30;99.90
32811;DHT22;65470;47.324;8.548;2023-02-25T08:17:12;7.20;99.90
32811;DHT22;65470;47.324;8.548;2023-02-25T08:19:38;7.20;99.90
32811;DHT22;65470;47.324;8.548;2023-02-25T08:22:04;7.20;99.90
32811;DHT22;65470;47.324;8.548;2023-02-25T08:24:30;7.30;99.90
32811;DHT22;65470;47.324;8.548;2023-02-25T08:26:56;7.40;99.90
32811;DHT22;65470;47.324;8.548;2023-02-25T08:29:22;7.40;99.90
32811;DHT22;65470;47.324;8.548;2023-02-25T08:31:52;7.40;99.90
32811;DHT22;65470;47.324;8.548;2023-02-25T08:34:18;7.40;99.90
32811;DHT22;65470;47.324;8.548;2023-02-25T08:36:44;7.40;99.90
32811;DHT22;65470;47.324;8.548;2023-02-25T08:39:10;7.40;99.90
32811;DHT22;65470;47.324;8.548;2023-02-25T08:41:36;7.40;99.90
32811;DHT22;65470;47.324;8.548;2023-02-25T08:44:02;7.50;99.90
32811;DHT22;65470;47.324;8.548;2023-02-25T08:46:30;7.60;99.90
32811;DHT22;65470;47.324;8.548;2023-02-25T08:48:57;7.80;99.90
32811;DHT22;65470;47.324;8.548;2023-02-25T08:51:23;7.80;99.90
32811;DHT22;65470;47.324;8.548;2023-02-25T08:53:49;7.80;99.90
32811;DHT22;65470;47.324;8.548;2023-02-25T08:56:15;7.80;99.90
32811;DHT22;65470;47.324;8.548;2023-02-25T08:58:41;7.90;99.90
32811;DHT22;65470;47.324;8.548;2023-02-25T09:01:14;7.90;99.90
32811;DHT22;65470;47.324;8.548;2023-02-25T09:03:45;7.90;99.90
32811;DHT22;65470;47.324;8.548;2023-02-25T09:06:24;8.00;99.90
32811;DHT22;65470;47.324;8.548;2023-02-25T09:08:51;7.80;99.90
32811;DHT22;65470;47.324;8.548;2023-02-25T09:11:19;7.80;99.90
32811;DHT22;65470;47.324;8.548;2023-02-25T09:13:44;7.90;99.90
32811;DHT22;65470;47.324;8.548;2023-02-25T09:16:10;8.00;99.90
32811;DHT22;65470;47.324;8.548;2023-02-25T09:18:36;8.10;99.90
32811;DHT22;65470;47.324;8.548;2023-02-25T09:21:01;8.20;99.90
32811;DHT22;65470;47.324;8.548;2023-02-25T09:23:27;8.20;99.90
32811;DHT22;65470;47.324;8.548;2023-02-25T09:25:53;8.20;99.90
32811;DHT22;65470;47.324;8.548;2023-02-25T09:28:18;8.30;99.90
32811;DHT22;65470;47.324;8.548;2023-02-25T09:30:45;8.30;99.90
32811;DHT22;65470;47.324;8.548;2023-02-25T09:33:11;8.30;99.90
32811;DHT22;65470;47.324;8.548;2023-02-25T09:35:37;8.40;99.90
32811;DHT22;65470;47.324;8.548;2023-02-25T09:38:03;8.40;99.90
32811;DHT22;65470;47.324;8.548;2023-02-25T09:40:28;8.50;99.90
32811;DHT22;65470;47.324;8.548;2023-02-25T09:45:30;8.50;99.90
32811;DHT22;65470;47.324;8.548;2023-02-25T09:48:03;8.50;99.90
32811;DHT22;65470;47.324;8.548;2023-02-25T09:50:40;8.50;99.90
32811;DHT22;65470;47.324;8.548;2023-02-25T09:55:48;8.50;99.90
32811;DHT22;65470;47.324;8.548;2023-02-25T10:09:02;8.40;99.90
32811;DHT22;65470;47.324;8.548;2023-02-25T10:11:48;8.40;99.90
32811;DHT22;65470;47.324;8.548;2023-02-25T10:22:50;8.40;99.90
32811;DHT22;65470;47.324;8.548;2023-02-25T10:25:27;8.30;99.90
32811;DHT22;65470;47.324;8.548;2023-02-25T10:28:00;8.30;99.90
32811;DHT22;65470;47.324;8.548;2023-02-25T10:33:24;8.30;99.90
32811;DHT22;65470;47.324;8.548;2023-02-25T10:36:13;8.30;99.90
32811;DHT22;65470;47.324;8.548;2023-02-25T10:38:46;8.30;99.90
32811;DHT22;65470;47.324;8.548;2023-02-25T10:41:12;8.20;99.90
32811;DHT22;65470;47.324;8.548;2023-02-25T10:43:38;8.20;99.90
32811;DHT22;65470;47.324;8.548;2023-02-25T10:48:46;8.20;99.90
32811;DHT22;65470;47.324;8.548;2023-02-25T10:51:14;8.20;99.90
32811;DHT22;65470;47.324;8.548;2023-02-25T10:54:11;8.30;99.90
32811;DHT22;65470;47.324;8.548;2023-02-25T10:56:42;8.30;99.90
32811;DHT22;65470;47.324;8.548;2023-02-25T10:59:27;8.30;99.90
32811;DHT22;65470;47.324;8.548;2023-02-25T11:01:54;8.30;99.90
32811;DHT22;65470;47.324;8.548;2023-02-25T11:04:32;8.30;99.90
32811;DHT22;65470;47.324;8.548;2023-02-25T11:06:58;8.30;99.90
32811;DHT22;65470;47.324;8.548;2023-02-25T11:12:10;8.20;99.90
32811;DHT22;65470;47.324;8.548;2023-02-25T11:14:40;8.20;99.90
32811;DHT22;65470;47.324;8.548;2023-02-25T11:19:42;8.10;99.90
32811;DHT22;65470;47.324;8.548;2023-02-25T11:22:20;8.10;99.90
32811;DHT22;65470;47.324;8.548;2023-02-25T11:24:58;8.10;99.90
32811;DHT22;65470;47.324;8.548;2023-02-25T11:32:31;8.20;99.90
32811;DHT22;65470;47.324;8.548;2023-02-25T11:35:06;8.20;99.90
32811;DHT22;65470;47.324;8.548;2023-02-25T11:40:29;8.50;99.90
32811;DHT22;65470;47.324;8.548;2023-02-25T11:45:34;8.80;99.90
32811;DHT22;65470;47.324;8.548;2023-02-25T11:48:04;8.80;99.90
32811;DHT22;65470;47.324;8.548;2023-02-25T11:53:34;8.80;99.90
32811;DHT22;65470;47.324;8.548;2023-02-25T12:01:22;8.80;99.90
32811;DHT22;65470;47.324;8.548;2023-02-25T12:04:09;8.80;99.90
32811;DHT22;65470;47.324;8.548;2023-02-25T12:06:51;8.90;99.90
32811;DHT22;65470;47.324;8.548;2023-02-25T12:09:27;8.90;99.90
32811;DHT22;65470;47.324;8.548;2023-02-25T12:20:25;9.00;99.90
32811;DHT22;65470;47.324;8.548;2023-02-25T12:28:34;9.00;99.90
32811;DHT22;65470;47.324;8.548;2023-02-25T12:34:25;9.10;99.90
32811;DHT22;65470;47.324;8.548;2023-02-25T12:37:05;9.10;99.90
32811;DHT22;65470;47.324;8.548;2023-02-25T12:42:31;9.00;99.90
32811;DHT22;65470;47.324;8.548;2023-02-25T12:48:01;8.80;99.90
32811;DHT22;65470;47.324;8.548;2023-02-25T12:58:48;8.30;99.90
32811;DHT22;65470;47.324;8.548;2023-02-25T13:04:27;8.00;99.90
32811;DHT22;65470;47.324;8.548;2023-02-25T13:15:59;7.90;99.90
32811;DHT22;65470;47.324;8.548;2023-02-25T13:24:36;7.90;99.90
32811;DHT22;65470;47.324;8.548;2023-02-25T14:06:22;7.60;99.90
32811;DHT22;65470;47.324;8.548;2023-02-25T14:08:21;7.70;99.90
32811;DHT22;65470;47.324;8.548;2023-02-25T14:11:01;7.60;99.90
32811;DHT22;65470;47.324;8.548;2023-02-25T14:16:16;7.60;99.90
32811;DHT22;65470;47.324;8.548;2023-02-25T14:19:10;7.60;99.90
32811;DHT22;65470;47.324;8.548;2023-02-25T14:24:40;7.60;99.90
32811;DHT22;65470;47.324;8.548;2023-02-25T14:32:56;7.50;99.90
32811;DHT22;65470;47.324;8.548;2023-02-25T14:38:14;7.60;99.90
32811;DHT22;65470;47.324;8.548;2023-02-25T15:05:44;7.60;99.90
32811;DHT22;65470;47.324;8.548;2023-02-25T15:08:41;7.60;99.90
32811;DHT22;65470;47.324;8.548;2023-02-25T15:16:16;7.60;99.90
32811;DHT22;65470;47.324;8.548;2023-02-25T15:21:44;7.60;99.90
32811;DHT22;65470;47.324;8.548;2023-02-25T15:26:54;7.70;99.90
32811;DHT22;65470;47.324;8.548;2023-02-25T15:32:28;7.70;99.90
32811;DHT22;65470;47.324;8.548;2023-02-25T15:35:06;7.70;99.90
32811;DHT22;65470;47.324;8.548;2023-02-25T15:38:00;7.70;99.90
32811;DHT22;65470;47.324;8.548;2023-02-25T15:43:40;7.70;99.90
32811;DHT22;65470;47.324;8.548;2023-02-25T15:45:54;7.70;99.90
32811;DHT22;65470;47.324;8.548;2023-02-25T15:48:39;7.70;99.90
32811;DHT22;65470;47.324;8.548;2023-02-25T15:51:09;7.70;99.90
32811;DHT22;65470;47.324;8.548;2023-02-25T15:53:38;7.70;99.90
32811;DHT22;65470;47.324;8.548;2023-02-25T16:00:59;7.60;99.90
32811;DHT22;65470;47.324;8.548;2023-02-25T16:13:57;7.40;99.90
32811;DHT22;65470;47.324;8.548;2023-02-25T16:16:25;7.40;99.90
32811;DHT22;65470;47.324;8.548;2023-02-25T16:18:52;7.40;99.90
32811;DHT22;65470;47.324;8.548;2023-02-25T16:21:41;7.40;99.90
32811;DHT22;65470;47.324;8.548;2023-02-25T16:24:11;7.40;99.90
32811;DHT22;65470;47.324;8.548;2023-02-25T16:32:19;7.40;99.90
32811;DHT22;65470;47.324;8.548;2023-02-25T16:34:56;7.30;99.90
32811;DHT22;65470;47.324;8.548;2023-02-25T16:39:59;7.30;99.90
32811;DHT22;65470;47.324;8.548;2023-02-25T16:42:27;7.30;99.90
32811;DHT22;65470;47.324;8.548;2023-02-25T16:44:59;7.30;99.90
32811;DHT22;65470;47.324;8.548;2023-02-25T16:47:28;7.30;99.90
32811;DHT22;65470;47.324;8.548;2023-02-25T16:49:55;7.40;99.90
32811;DHT22;65470;47.324;8.548;2023-02-25T16:52:37;7.30;99.90
32811;DHT22;65470;47.324;8.548;2023-02-25T16:55:07;7.20;99.90
32811;DHT22;65470;47.324;8.548;2023-02-25T16:57:36;7.20;99.90
32811;DHT22;65470;47.324;8.548;2023-02-25T17:00:13;7.20;99.90
32811;DHT22;65470;47.324;8.548;2023-02-25T17:02:48;7.20;99.90
32811;DHT22;65470;47.324;8.548;2023-02-25T17:07:53;7.20;99.90
32811;DHT22;65470;47.324;8.548;2023-02-25T17:10:25;7.20;99.90
32811;DHT22;65470;47.324;8.548;2023-02-25T17:12:51;7.20;99.90
32811;DHT22;65470;47.324;8.548;2023-02-25T17:15:25;7.20;99.90
32811;DHT22;65470;47.324;8.548;2023-02-25T17:18:07;7.20;99.90
32811;DHT22;65470;47.324;8.548;2023-02-25T17:20:35;7.10;99.90
32811;DHT22;65470;47.324;8.548;2023-02-25T17:23:06;7.20;99.90
32811;DHT22;65470;47.324;8.548;2023-02-25T17:25:51;7.20;99.90
32811;DHT22;65470;47.324;8.548;2023-02-25T17:28:25;7.10;99.90
32811;DHT22;65470;47.324;8.548;2023-02-25T17:31:09;7.10;99.90
32811;DHT22;65470;47.324;8.548;2023-02-25T17:33:46;7.10;99.90
32811;DHT22;65470;47.324;8.548;2023-02-25T17:36:13;7.10;99.90
32811;DHT22;65470;47.324;8.548;2023-02-25T17:38:41;7.10;99.90
32811;DHT22;65470;47.324;8.548;2023-02-25T17:41:16;7.00;99.90
32811;DHT22;65470;47.324;8.548;2023-02-25T17:43:43;7.00;99.90
32811;DHT22;65470;47.324;8.548;2023-02-25T17:46:30;7.00;99.90
32811;DHT22;65470;47.324;8.548;2023-02-25T17:51:39;6.90;99.90
32811;DHT22;65470;47.324;8.548;2023-02-25T17:54:10;6.90;99.90
32811;DHT22;65470;47.324;8.548;2023-02-25T17:56:38;6.90;99.90
32811;DHT22;65470;47.324;8.548;2023-02-25T17:59:10;6.90;99.90
32811;DHT22;65470;47.324;8.548;2023-02-25T18:01:57;6.90;99.90
32811;DHT22;65470;47.324;8.548;2023-02-25T18:06:57;6.90;99.90
32811;DHT22;65470;47.324;8.548;2023-02-25T18:09:31;6.90;99.90
32811;DHT22;65470;47.324;8.548;2023-02-25T18:12:03;6.80;99.90
32811;DHT22;65470;47.324;8.548;2023-02-25T18:14:36;6.80;99.90
32811;DHT22;65470;47.324;8.548;2023-02-25T18:17:12;6.80;99.90
32811;DHT22;65470;47.324;8.548;2023-02-25T18:19:42;6.90;99.90
32811;DHT22;65470;47.324;8.548;2023-02-25T18:25:41;6.80;99.90
32811;DHT22;65470;47.324;8.548;2023-02-25T18:28:14;6.70;99.90
32811;DHT22;65470;47.324;8.548;2023-02-25T18:30:40;6.80;99.90
32811;DHT22;65470;47.324;8.548;2023-02-25T18:33:06;6.80;99.90
32811;DHT22;65470;47.324;8.548;2023-02-25T18:35:37;6.80;99.90
32811;DHT22;65470;47.324;8.548;2023-02-25T18:38:04;6.80;99.90
32811;DHT22;65470;47.324;8.548;2023-02-25T18:40:35;6.80;99.90
32811;DHT22;65470;47.324;8.548;2023-02-25T18:43:04;6.70;99.90
32811;DHT22;65470;47.324;8.548;2023-02-25T18:45:31;6.60;99.30
32811;DHT22;65470;47.324;8.548;2023-02-25T18:47:58;6.60;99.60
32811;DHT22;65470;47.324;8.548;2023-02-25T18:50:31;6.60;99.90
32811;DHT22;65470;47.324;8.548;2023-02-25T18:52:57;6.50;98.80
32811;DHT22;65470;47.324;8.548;2023-02-25T18:55:29;6.50;98.00
32811;DHT22;65470;47.324;8.548;2023-02-25T18:57:55;6.50;97.80
32811;DHT22;65470;47.324;8.548;2023-02-25T19:00:22;6.50;97.40
32811;DHT22;65470;47.324;8.548;2023-02-25T19:02:50;6.50;98.50
32811;DHT22;65470;47.324;8.548;2023-02-25T19:05:19;6.50;98.50
32811;DHT22;65470;47.324;8.548;2023-02-25T19:07:45;6.50;98.40
32811;DHT22;65470;47.324;8.548;2023-02-25T19:10:26;6.50;97.90
32811;DHT22;65470;47.324;8.548;2023-02-25T19:13:02;6.50;98.20
32811;DHT22;65470;47.324;8.548;2023-02-25T19:15:28;6.50;98.70
32811;DHT22;65470;47.324;8.548;2023-02-25T19:17:54;6.50;98.40
32811;DHT22;65470;47.324;8.548;2023-02-25T19:20:20;6.50;98.40
32811;DHT22;65470;47.324;8.548;2023-02-25T19:22:49;6.50;99.00
32811;DHT22;65470;47.324;8.548;2023-02-25T19:27:43;6.50;97.90
32811;DHT22;65470;47.324;8.548;2023-02-25T19:30:13;6.50;96.90
32811;DHT22;65470;47.324;8.548;2023-02-25T19:32:39;6.50;97.60
32811;DHT22;65470;47.324;8.548;2023-02-25T19:35:06;6.50;98.40
32811;DHT22;65470;47.324;8.548;2023-02-25T19:37:35;6.50;97.90
32811;DHT22;65470;47.324;8.548;2023-02-25T19:40:05;6.50;97.50
32811;DHT22;65470;47.324;8.548;2023-02-25T19:42:35;6.50;96.60
32811;DHT22;65470;47.324;8.548;2023-02-25T19:45:01;6.50;98.00
32811;DHT22;65470;47.324;8.548;2023-02-25T19:47:26;6.60;98.00
32811;DHT22;65470;47.324;8.548;2023-02-25T19:49:52;6.60;98.80
32811;DHT22;65470;47.324;8.548;2023-02-25T19:52:17;6.60;99.90
32811;DHT22;65470;47.324;8.548;2023-02-25T19:54:43;6.60;99.90
32811;DHT22;65470;47.324;8.548;2023-02-25T19:57:09;6.70;99.50
32811;DHT22;65470;47.324;8.548;2023-02-25T19:59:36;6.70;98.40
32811;DHT22;65470;47.324;8.548;2023-02-25T20:02:02;6.60;97.80
32811;DHT22;65470;47.324;8.548;2023-02-25T20:04:27;6.70;96.90
32811;DHT22;65470;47.324;8.548;2023-02-25T20:06:53;6.70;96.20
32811;DHT22;65470;47.324;8.548;2023-02-25T20:09:19;6.70;95.90
32811;DHT22;65470;47.324;8.548;2023-02-25T20:11:45;6.70;98.30
32811;DHT22;65470;47.324;8.548;2023-02-25T20:14:11;6.60;97.80
32811;DHT22;65470;47.324;8.548;2023-02-25T20:16:39;6.60;97.10